createdAt,value
2022-11-16T00:01:33.435Z,62.49
2022-11-16T00:04:01.254Z,62.88
2022-11-16T00:06:28.260Z,62.78
2022-11-16T00:09:14.529Z,62.49
2022-11-16T00:11:42.517Z,62.77
2022-11-16T00:14:09.402Z,62.60
2022-11-16T00:16:36.032Z,62.95
2022-11-16T00:19:04.633Z,62.50
2022-11-16T00:21:31.656Z,62.52
2022-11-16T00:23:58.620Z,62.46
2022-11-16T00:26:25.228Z,62.79
2022-11-16T00:28:53.986Z,62.84
2022-11-16T00:31:21.105Z,62.97
2022-11-16T00:33:48.054Z,63.10
2022-11-16T00:36:14.855Z,62.73
2022-11-16T00:38:41.733Z,63.10
2022-11-16T00:41:08.492Z,63.29
2022-11-16T00:43:35.428Z,63.48
2022-11-16T00:46:04.264Z,62.89
2022-11-16T00:48:31.101Z,63.67
2022-11-16T00:50:57.882Z,63.14
2022-11-16T00:53:24.423Z,63.73
2022-11-16T00:55:51.191Z,63.62
2022-11-16T00:58:19.887Z,63.05
2022-11-16T01:00:51.342Z,63.27
2022-11-16T01:03:19.695Z,63.67
2022-11-16T01:05:46.231Z,63.46
2022-11-16T01:08:14.166Z,63.42
2022-11-16T01:10:41.623Z,63.50
2022-11-16T01:13:10.943Z,63.24
2022-11-16T01:15:37.426Z,63.08
2022-11-16T01:18:03.945Z,62.97
2022-11-16T01:20:31.814Z,62.64
2022-11-16T01:22:58.535Z,62.62
2022-11-16T01:25:25.062Z,62.79
2022-11-16T01:27:51.665Z,62.62
2022-11-16T01:30:25.344Z,62.82
2022-11-16T01:33:05.398Z,63.41
2022-11-16T01:35:33.384Z,62.61
2022-11-16T01:37:59.900Z,62.92
2022-11-16T01:40:27.096Z,62.90
2022-11-16T01:42:55.144Z,62.91
2022-11-16T01:45:23.574Z,62.86
2022-11-16T01:47:53.606Z,62.70
2022-11-16T01:50:23.066Z,62.58
2022-11-16T01:52:54.243Z,62.43
2022-11-16T01:55:22.600Z,62.30
2022-11-16T01:58:15.251Z,62.83
2022-11-16T02:00:42.133Z,62.45
2022-11-16T02:03:27.654Z,62.80
2022-11-16T02:06:04.308Z,62.88
2022-11-16T02:09:00.675Z,62.61
2022-11-16T02:11:39.689Z,63.04
2022-11-16T02:14:15.554Z,62.65
2022-11-16T02:16:48.427Z,62.58
2022-11-16T02:19:29.386Z,63.27
2022-11-16T02:21:59.194Z,63.44
2022-11-16T02:24:46.989Z,63.50
2022-11-16T02:27:28.618Z,63.33
2022-11-16T02:29:57.028Z,63.00
2022-11-16T02:32:27.087Z,63.00
2022-11-16T02:34:56.493Z,62.83
2022-11-16T02:37:24.683Z,63.28
2022-11-16T02:39:53.389Z,63.13
2022-11-16T02:42:23.026Z,63.41
2022-11-16T02:44:52.153Z,63.37
2022-11-16T02:47:22.225Z,64.16
2022-11-16T02:49:52.237Z,64.11
2022-11-16T02:52:19.727Z,64.41
2022-11-16T02:54:47.392Z,64.48
2022-11-16T02:57:23.626Z,64.25
2022-11-16T02:59:51.905Z,64.71
2022-11-16T03:02:23.453Z,64.83
2022-11-16T03:04:52.169Z,64.23
2022-11-16T03:07:23.298Z,64.53
2022-11-16T03:09:51.347Z,64.58
2022-11-16T03:12:20.290Z,64.61
2022-11-16T03:14:49.486Z,64.36
2022-11-16T03:17:20.903Z,64.71
2022-11-16T03:19:53.888Z,64.86
2022-11-16T03:22:26.426Z,64.99
2022-11-16T03:24:55.142Z,65.25
2022-11-16T03:27:25.345Z,65.22
2022-11-16T03:29:58.977Z,66.05
2022-11-16T03:32:29.243Z,65.86
2022-11-16T03:35:03.250Z,66.00
2022-11-16T03:37:32.352Z,66.46
2022-11-16T03:40:01.321Z,65.87
2022-11-16T03:42:31.878Z,66.17
2022-11-16T03:44:59.224Z,66.19
2022-11-16T03:47:25.891Z,66.51
2022-11-16T03:49:53.187Z,65.91
2022-11-16T03:52:21.472Z,65.87
2022-11-16T03:54:50.341Z,65.67
2022-11-16T03:57:18.829Z,65.77
2022-11-16T03:59:52.312Z,65.70
2022-11-16T04:02:20.676Z,65.66
2022-11-16T04:05:10.663Z,65.07
2022-11-16T04:07:58.045Z,65.31
2022-11-16T04:10:44.070Z,65.32
2022-11-16T04:13:31.117Z,65.23
2022-11-16T04:16:16.510Z,65.17
2022-11-16T04:19:03.202Z,65.83
2022-11-16T04:21:51.601Z,66.15
2022-11-16T04:24:22.917Z,66.12
2022-11-16T04:27:09.117Z,66.15
2022-11-16T04:29:36.360Z,66.37
2022-11-16T04:32:21.506Z,66.45
2022-11-16T04:35:06.766Z,66.64
2022-11-16T04:37:49.340Z,66.67
2022-11-16T04:40:23.137Z,66.97
2022-11-16T04:42:53.415Z,67.86
2022-11-16T04:45:38.714Z,67.87
2022-11-16T04:48:07.533Z,67.76
2022-11-16T04:50:36.193Z,67.82
2022-11-16T04:53:03.429Z,68.04
2022-11-16T04:55:33.550Z,67.35
2022-11-16T04:58:00.734Z,67.03
2022-11-16T05:00:27.467Z,67.51
2022-11-16T05:03:00.780Z,67.73
2022-11-16T05:05:28.520Z,67.78
2022-11-16T05:07:55.623Z,67.41
2022-11-16T05:10:26.952Z,67.27
2022-11-16T05:12:55.790Z,67.63
2022-11-16T05:15:23.349Z,67.67
2022-11-16T05:17:51.354Z,67.69
2022-11-16T05:20:40.648Z,67.40
2022-11-16T05:23:28.801Z,67.88
2022-11-16T05:25:58.802Z,67.20
2022-11-16T05:28:27.477Z,67.74
2022-11-16T05:30:54.157Z,67.80
2022-11-16T05:33:23.170Z,68.39
2022-11-16T05:35:51.085Z,68.24
2022-11-16T05:38:19.062Z,68.15
2022-11-16T05:40:48.966Z,68.31
2022-11-16T05:43:15.715Z,68.16
2022-11-16T05:45:53.103Z,68.71
2022-11-16T05:48:20.095Z,69.08
2022-11-16T05:50:47.679Z,68.39
2022-11-16T05:53:21.037Z,68.32
2022-11-16T05:55:48.603Z,68.34
2022-11-16T05:58:16.757Z,68.57
2022-11-16T06:00:45.733Z,67.97
2022-11-16T06:03:13.712Z,68.54
2022-11-16T06:05:40.950Z,68.54
2022-11-16T06:08:09.513Z,68.28
2022-11-16T06:10:37.206Z,68.22
2022-11-16T06:13:05.080Z,69.03
2022-11-16T06:15:32.250Z,68.58
2022-11-16T06:17:58.898Z,68.23
2022-11-16T06:20:27.253Z,68.65
2022-11-16T06:22:54.444Z,69.31
2022-11-16T06:25:22.177Z,68.66
2022-11-16T06:27:48.731Z,69.35
2022-11-16T06:30:19.698Z,69.61
2022-11-16T06:32:46.491Z,69.25
2022-11-16T06:35:13.121Z,69.18
2022-11-16T06:37:41.414Z,69.20
2022-11-16T06:40:09.329Z,69.22
2022-11-16T06:42:41.110Z,68.69
2022-11-16T06:45:10.210Z,68.48
2022-11-16T06:47:40.756Z,68.46
2022-11-16T06:50:07.836Z,68.75
2022-11-16T06:52:34.646Z,68.91
2022-11-16T06:55:03.170Z,69.16
2022-11-16T06:57:35.666Z,68.98
2022-11-16T07:00:04.252Z,69.00
2022-11-16T07:02:32.728Z,68.46
2022-11-16T07:05:03.467Z,68.19
2022-11-16T07:07:31.374Z,67.94
2022-11-16T07:09:58.086Z,67.91
2022-11-16T07:12:27.279Z,68.04
2022-11-16T07:14:56.409Z,67.92
2022-11-16T07:17:24.416Z,67.82
2022-11-16T07:19:52.367Z,67.81
2022-11-16T07:22:18.947Z,68.04
2022-11-16T07:24:46.327Z,67.97
2022-11-16T07:27:13.066Z,67.79
2022-11-16T07:29:45.113Z,67.82
2022-11-16T07:32:32.104Z,67.84
2022-11-16T07:35:06.930Z,67.48
2022-11-16T07:37:33.507Z,68.14
2022-11-16T07:40:00.140Z,68.11
2022-11-16T07:42:27.952Z,68.00
2022-11-16T07:45:22.408Z,68.10
2022-11-16T07:47:54.346Z,68.14
2022-11-16T07:50:59.595Z,68.32
2022-11-16T07:53:26.225Z,67.73
2022-11-16T07:55:53.619Z,67.89
2022-11-16T07:58:21.276Z,67.98
2022-11-16T08:00:50.682Z,68.05
2022-11-16T08:03:21.895Z,67.40
2022-11-16T08:05:58.246Z,67.78
2022-11-16T08:08:24.784Z,67.42
2022-11-16T08:10:51.649Z,67.85
2022-11-16T08:13:18.835Z,67.48
2022-11-16T08:15:46.899Z,67.18
2022-11-16T08:18:14.840Z,66.84
2022-11-16T08:20:41.373Z,67.28
2022-11-16T08:23:08.319Z,67.07
2022-11-16T08:25:36.028Z,67.42
2022-11-16T08:28:02.961Z,67.78
2022-11-16T08:30:30.581Z,67.56
2022-11-16T08:32:58.066Z,67.76
2022-11-16T08:35:26.713Z,67.63
2022-11-16T08:37:53.250Z,68.17
2022-11-16T08:40:19.825Z,67.96
2022-11-16T08:42:47.773Z,68.35
2022-11-16T08:45:15.478Z,68.61
2022-11-16T08:47:42.491Z,68.71
2022-11-16T08:50:09.570Z,69.21
2022-11-16T08:52:38.700Z,69.14
2022-11-16T08:55:06.629Z,69.25
2022-11-16T08:57:33.386Z,69.49
2022-11-16T09:00:04.735Z,69.54
2022-11-16T09:02:31.553Z,69.42
2022-11-16T09:04:58.079Z,69.34
2022-11-16T09:07:24.880Z,69.41
2022-11-16T09:09:53.499Z,69.39
2022-11-16T09:12:20.286Z,68.91
2022-11-16T09:14:46.979Z,69.13
2022-11-16T09:17:14.871Z,68.85
2022-11-16T09:19:44.191Z,69.38
2022-11-16T09:22:10.926Z,69.23
2022-11-16T09:24:37.466Z,69.12
2022-11-16T09:27:07.082Z,69.55
2022-11-16T09:29:33.670Z,69.16
2022-11-16T09:32:00.413Z,69.51
2022-11-16T09:34:26.965Z,69.76
2022-11-16T09:36:53.545Z,69.75
2022-11-16T09:39:30.999Z,69.71
2022-11-16T09:42:01.548Z,69.68
2022-11-16T09:44:43.034Z,68.91
2022-11-16T09:47:15.153Z,69.35
2022-11-16T09:49:43.820Z,67.98
2022-11-16T09:52:14.084Z,67.86
2022-11-16T09:54:42.823Z,68.05
2022-11-16T09:57:12.769Z,67.81
2022-11-16T09:59:41.318Z,67.00
2022-11-16T10:02:16.754Z,67.46
2022-11-16T10:04:47.296Z,67.16
2022-11-16T10:07:14.901Z,66.54
2022-11-16T10:09:41.958Z,66.05
2022-11-16T10:12:11.993Z,65.61
2022-11-16T10:14:47.389Z,65.97
2022-11-16T10:17:20.210Z,66.30
2022-11-16T10:19:53.030Z,66.16
2022-11-16T10:22:24.802Z,65.69
2022-11-16T10:24:56.437Z,64.92
2022-11-16T10:27:30.784Z,65.12
2022-11-16T10:30:02.711Z,65.17
2022-11-16T10:32:32.954Z,65.25
2022-11-16T10:35:03.225Z,65.50
2022-11-16T10:37:31.231Z,65.70
2022-11-16T10:39:57.788Z,64.90
2022-11-16T10:42:31.150Z,64.74
2022-11-16T10:45:02.727Z,64.42
2022-11-16T10:47:36.645Z,64.92
2022-11-16T10:50:08.714Z,65.40
2022-11-16T10:52:35.343Z,65.10
2022-11-16T10:55:02.213Z,64.85
2022-11-16T10:57:53.177Z,64.72
2022-11-16T11:00:33.324Z,64.05
2022-11-16T11:03:01.871Z,64.32
2022-11-16T11:05:29.918Z,62.82
2022-11-16T11:08:01.733Z,63.50
2022-11-16T11:10:29.959Z,62.98
2022-11-16T11:13:05.135Z,63.39
2022-11-16T11:15:31.986Z,63.26
2022-11-16T11:18:17.460Z,63.31
2022-11-16T11:20:45.621Z,63.37
2022-11-16T11:23:14.049Z,62.48
2022-11-16T11:25:41.759Z,62.01
2022-11-16T11:28:19.727Z,61.68
2022-11-16T11:30:52.165Z,61.57
2022-11-16T11:33:23.549Z,61.48
2022-11-16T11:35:57.320Z,61.51
2022-11-16T11:38:23.874Z,61.66
2022-11-16T11:40:56.348Z,61.53
2022-11-16T11:43:27.341Z,61.36
2022-11-16T11:45:56.690Z,61.51
2022-11-16T11:48:36.402Z,61.81
2022-11-16T11:51:09.014Z,61.72
2022-11-16T11:53:46.591Z,61.51
2022-11-16T11:56:14.161Z,61.31
2022-11-16T11:58:41.609Z,61.90
2022-11-16T12:01:26.007Z,62.07
2022-11-16T12:04:05.202Z,62.07
2022-11-16T12:06:42.642Z,61.78
2022-11-16T12:09:25.355Z,61.90
2022-11-16T12:11:59.857Z,62.07
2022-11-16T12:14:32.346Z,61.64
2022-11-16T12:17:06.130Z,61.63
2022-11-16T12:19:45.839Z,61.26
2022-11-16T12:22:17.398Z,61.09
2022-11-16T12:24:53.901Z,61.19
2022-11-16T12:27:27.054Z,61.27
2022-11-16T12:29:59.217Z,61.17
2022-11-16T12:32:44.320Z,61.10
2022-11-16T12:35:21.574Z,60.75
2022-11-16T12:37:53.858Z,60.28
2022-11-16T12:40:30.346Z,60.31
2022-11-16T12:43:01.971Z,60.73
2022-11-16T12:45:35.422Z,60.64
2022-11-16T12:48:19.558Z,61.05
2022-11-16T12:50:53.436Z,61.01
2022-11-16T12:53:40.932Z,60.72
2022-11-16T12:56:12.326Z,60.51
2022-11-16T12:58:47.370Z,60.31
2022-11-16T13:01:17.261Z,59.93
2022-11-16T13:03:47.455Z,60.25
2022-11-16T13:06:18.910Z,60.10
2022-11-16T13:08:49.737Z,60.04
2022-11-16T13:11:20.633Z,60.06
2022-11-16T13:13:53.403Z,60.05
2022-11-16T13:16:21.504Z,60.12
2022-11-16T13:18:48.184Z,60.39
2022-11-16T13:21:28.368Z,60.45
2022-11-16T13:24:08.037Z,60.80
2022-11-16T13:26:38.767Z,61.05
2022-11-16T13:29:12.759Z,61.11
2022-11-16T13:31:42.613Z,61.28
2022-11-16T13:34:14.299Z,61.27
2022-11-16T13:36:45.017Z,61.31
2022-11-16T13:39:18.720Z,60.86
2022-11-16T13:41:49.185Z,60.95
2022-11-16T13:44:27.193Z,60.61
2022-11-16T13:46:56.958Z,60.51
2022-11-16T13:49:31.936Z,60.45
2022-11-16T13:52:11.647Z,60.15
2022-11-16T13:54:48.637Z,60.24
2022-11-16T13:57:23.637Z,59.95
2022-11-16T13:59:53.634Z,59.78
2022-11-16T14:02:30.712Z,59.53
2022-11-16T14:04:58.558Z,59.59
2022-11-16T14:07:31.312Z,59.51
2022-11-16T14:09:57.999Z,59.41
2022-11-16T14:12:57.733Z,59.42
2022-11-16T14:15:25.845Z,59.36
2022-11-16T14:17:53.622Z,59.33
2022-11-16T14:20:38.116Z,59.15
2022-11-16T14:23:11.709Z,59.34
2022-11-16T14:25:40.499Z,59.31
2022-11-16T14:28:13.228Z,59.45
2022-11-16T14:30:46.900Z,59.58
2022-11-16T14:33:16.503Z,59.86
2022-11-16T14:35:43.129Z,59.77
2022-11-16T14:38:17.833Z,59.66
2022-11-16T14:40:46.208Z,59.75
2022-11-16T14:43:17.514Z,59.93
2022-11-16T14:45:47.157Z,59.84
2022-11-16T14:48:15.224Z,60.21
2022-11-16T14:50:43.554Z,60.45
2022-11-16T14:53:12.192Z,60.52
2022-11-16T14:55:42.541Z,60.41
2022-11-16T14:58:15.984Z,60.40
2022-11-16T15:00:51.702Z,60.55
2022-11-16T15:03:18.484Z,60.91
2022-11-16T15:05:44.983Z,60.45
2022-11-16T15:08:14.916Z,60.63
2022-11-16T15:10:49.508Z,60.86
2022-11-16T15:13:20.513Z,60.53
2022-11-16T15:15:47.286Z,60.30
2022-11-16T15:18:17.631Z,60.68
2022-11-16T15:20:48.707Z,60.60
2022-11-16T15:23:15.563Z,61.10
2022-11-16T15:25:43.311Z,61.26
2022-11-16T15:28:16.004Z,61.36
2022-11-16T15:30:45.068Z,61.42
2022-11-16T15:33:15.856Z,61.88
2022-11-16T15:35:42.392Z,61.38
2022-11-16T15:38:13.800Z,61.87
2022-11-16T15:40:43.192Z,61.65
2022-11-16T15:43:10.467Z,62.14
2022-11-16T15:45:38.745Z,62.11
2022-11-16T15:48:05.734Z,61.73
2022-11-16T15:50:32.378Z,62.14
2022-11-16T15:52:59.790Z,61.99
2022-11-16T15:55:30.621Z,62.55
2022-11-16T15:57:59.235Z,62.56
2022-11-16T16:00:26.737Z,62.92
2022-11-16T16:02:55.391Z,63.21
2022-11-16T16:05:32.418Z,62.88
2022-11-16T16:07:59.564Z,62.99
2022-11-16T16:10:26.461Z,63.26
2022-11-16T16:12:54.226Z,62.91
2022-11-16T16:15:22.806Z,63.50
2022-11-16T16:17:49.603Z,63.16
2022-11-16T16:20:19.559Z,62.92
2022-11-16T16:22:46.356Z,62.54
2022-11-16T16:25:34.030Z,63.23
2022-11-16T16:28:00.565Z,62.78
2022-11-16T16:30:27.976Z,63.13
2022-11-16T16:32:54.512Z,63.24
2022-11-16T16:35:23.662Z,62.87
2022-11-16T16:37:50.922Z,63.50
2022-11-16T16:40:17.921Z,62.67
2022-11-16T16:42:44.730Z,62.50
2022-11-16T16:45:14.889Z,63.03
2022-11-16T16:47:41.378Z,63.29
2022-11-16T16:50:08.757Z,63.10
2022-11-16T16:52:36.735Z,63.33
2022-11-16T16:55:03.806Z,63.23
2022-11-16T16:57:30.486Z,63.68
2022-11-16T16:59:57.060Z,63.65
2022-11-16T17:02:26.067Z,63.12
2022-11-16T17:04:52.617Z,63.82
2022-11-16T17:07:19.183Z,64.23
2022-11-16T17:09:47.112Z,64.35
2022-11-16T17:12:13.649Z,64.64
2022-11-16T17:14:40.209Z,64.28
2022-11-16T17:17:06.723Z,64.20
2022-11-16T17:19:33.223Z,64.79
2022-11-16T17:22:00.007Z,64.13
2022-11-16T17:24:26.818Z,64.15
2022-11-16T17:26:54.773Z,64.08
2022-11-16T17:29:21.386Z,64.30
2022-11-16T17:31:48.029Z,64.50
2022-11-16T17:34:14.666Z,64.94
2022-11-16T17:36:41.397Z,64.72
2022-11-16T17:39:07.888Z,64.26
2022-11-16T17:41:34.597Z,64.31
2022-11-16T17:44:02.636Z,64.73
2022-11-16T17:46:29.202Z,64.69
2022-11-16T17:48:56.128Z,64.56
2022-11-16T17:51:23.843Z,64.66
2022-11-16T17:53:50.878Z,64.92
2022-11-16T17:56:18.846Z,64.95
2022-11-16T17:58:45.565Z,64.90
2022-11-16T18:01:14.192Z,65.26
2022-11-16T18:03:40.766Z,65.57
2022-11-16T18:06:08.690Z,65.88
2022-11-16T18:08:35.889Z,65.67
2022-11-16T18:11:06.334Z,65.71
2022-11-16T18:13:33.487Z,65.72
2022-11-16T18:16:04.475Z,65.12
2022-11-16T18:18:32.449Z,65.15
2022-11-16T18:20:59.182Z,65.57
2022-11-16T18:23:25.722Z,64.90
2022-11-16T18:25:52.246Z,64.96
2022-11-16T18:28:18.993Z,64.98
2022-11-16T18:30:45.743Z,65.55
2022-11-16T18:33:12.405Z,65.42
2022-11-16T18:35:40.405Z,65.08
2022-11-16T18:38:08.253Z,65.69
2022-11-16T18:40:35.024Z,65.58
2022-11-16T18:43:01.484Z,66.01
2022-11-16T18:45:28.182Z,65.60
2022-11-16T18:47:54.680Z,65.49
2022-11-16T18:50:26.492Z,65.43
2022-11-16T18:52:56.557Z,64.95
2022-11-16T18:55:23.267Z,65.32
2022-11-16T18:57:49.759Z,64.90
2022-11-16T19:00:19.143Z,65.10
2022-11-16T19:02:45.641Z,65.37
2022-11-16T19:05:12.160Z,65.40
2022-11-16T19:07:38.932Z,65.41
2022-11-16T19:10:08.043Z,65.39
2022-11-16T19:12:34.511Z,65.84
2022-11-16T19:15:01.236Z,65.99
2022-11-16T19:17:27.888Z,65.90
2022-11-16T19:19:54.600Z,65.80
2022-11-16T19:22:21.246Z,65.89
2022-11-16T19:24:47.963Z,66.28
2022-11-16T19:27:16.641Z,66.66
2022-11-16T19:29:43.304Z,66.33
2022-11-16T19:32:09.757Z,66.40
2022-11-16T19:34:36.386Z,66.84
2022-11-16T19:37:02.968Z,66.80
2022-11-16T19:39:29.437Z,66.75
2022-11-16T19:41:55.923Z,66.96
2022-11-16T19:44:24.076Z,66.73
2022-11-16T19:46:53.023Z,67.02
2022-11-16T19:49:21.653Z,66.79
2022-11-16T19:51:48.732Z,66.76
2022-11-16T19:54:15.262Z,66.59
2022-11-16T19:56:42.186Z,66.42
2022-11-16T19:59:08.929Z,66.17
2022-11-16T20:01:36.858Z,65.93
2022-11-16T20:04:03.579Z,65.80
2022-11-16T20:06:31.082Z,66.04
2022-11-16T20:09:00.335Z,66.03
2022-11-16T20:11:27.893Z,66.09
2022-11-16T20:13:55.968Z,66.13
2022-11-16T20:16:23.497Z,65.41
2022-11-16T20:18:52.068Z,65.57
2022-11-16T20:21:21.802Z,65.58
2022-11-16T20:23:49.232Z,66.22
2022-11-16T20:26:15.949Z,66.51
2022-11-16T20:28:43.407Z,66.36
2022-11-16T20:31:10.911Z,66.37
2022-11-16T20:33:37.749Z,66.46
2022-11-16T20:36:08.019Z,66.39
2022-11-16T20:38:35.367Z,65.72
2022-11-16T20:41:08.960Z,66.04
2022-11-16T20:43:36.044Z,65.80
2022-11-16T20:46:03.489Z,65.92
2022-11-16T20:48:30.082Z,65.88
2022-11-16T20:50:56.756Z,65.58
2022-11-16T20:53:27.390Z,66.06
2022-11-16T20:55:54.374Z,66.53
2022-11-16T20:58:23.775Z,67.00
2022-11-16T21:00:51.144Z,66.68
2022-11-16T21:03:17.949Z,67.00
2022-11-16T21:05:45.107Z,66.44
2022-11-16T21:08:12.104Z,66.83
2022-11-16T21:10:40.527Z,67.01
2022-11-16T21:13:30.463Z,66.80
2022-11-16T21:15:57.927Z,66.74
2022-11-16T21:18:30.405Z,65.80
2022-11-16T21:20:58.828Z,65.41
2022-11-16T21:23:25.674Z,65.57
2022-11-16T21:25:53.526Z,65.31
2022-11-16T21:28:25.305Z,65.73
2022-11-16T21:30:56.102Z,65.56
2022-11-16T21:33:22.847Z,66.29
2022-11-16T21:35:49.342Z,65.93
2022-11-16T21:38:15.854Z,66.21
2022-11-16T21:40:43.722Z,66.39
2022-11-16T21:43:11.928Z,66.93
2022-11-16T21:45:38.529Z,66.62
2022-11-16T21:48:05.263Z,67.27
2022-11-16T21:50:32.528Z,67.15
2022-11-16T21:52:59.473Z,67.03
2022-11-16T21:55:26.193Z,67.25
2022-11-16T21:57:52.693Z,66.94
2022-11-16T22:00:21.018Z,66.48
2022-11-16T22:02:47.686Z,66.45
2022-11-16T22:05:33.153Z,66.71
2022-11-16T22:08:03.622Z,67.04
2022-11-16T22:10:30.379Z,67.28
2022-11-16T22:12:56.922Z,67.42
2022-11-16T22:15:25.493Z,67.49
2022-11-16T22:17:52.033Z,66.47
2022-11-16T22:20:18.762Z,66.13
2022-11-16T22:22:45.334Z,66.29
2022-11-16T22:25:13.931Z,66.58
2022-11-16T22:27:58.784Z,67.46
2022-11-16T22:30:29.371Z,67.38
2022-11-16T22:32:55.847Z,66.82
2022-11-16T22:35:22.353Z,67.01
2022-11-16T22:37:48.849Z,67.21
2022-11-16T22:40:17.926Z,67.92
2022-11-16T22:42:44.703Z,67.93
2022-11-16T22:45:12.054Z,68.05
2022-11-16T22:47:39.983Z,68.23
2022-11-16T22:50:06.631Z,68.13
2022-11-16T22:52:33.536Z,67.73
2022-11-16T22:55:00.266Z,68.30
2022-11-16T22:57:26.716Z,67.86
2022-11-16T22:59:53.551Z,68.01
2022-11-16T23:02:20.099Z,67.77
2022-11-16T23:04:48.289Z,68.15
2022-11-16T23:07:15.130Z,68.14
2022-11-16T23:09:42.475Z,67.76
2022-11-16T23:12:27.726Z,68.10
2022-11-16T23:15:13.002Z,67.55
2022-11-16T23:17:39.541Z,67.57
2022-11-16T23:20:26.962Z,67.40
2022-11-16T23:23:11.972Z,67.48
2022-11-16T23:25:57.222Z,67.23
2022-11-16T23:28:23.861Z,67.50
2022-11-16T23:30:50.475Z,67.58
2022-11-16T23:33:16.987Z,67.51
2022-11-16T23:35:45.095Z,67.66
2022-11-16T23:38:13.176Z,68.48
2022-11-16T23:40:39.854Z,68.01
2022-11-16T23:43:25.594Z,68.00
2022-11-16T23:45:52.156Z,67.94
2022-11-16T23:48:18.832Z,67.59
2022-11-16T23:50:46.950Z,67.60
2022-11-16T23:53:14.027Z,67.92
2022-11-16T23:55:40.911Z,68.72
2022-11-16T23:58:11.327Z,68.87
